Balch Springs, Texas
Current Conditions -  °F | °C
As of 5:47 PM on Friday 28 Nov 2014 (Local Time) from KHQZ Reporting Station
Clear Clear  
Wind Chill: 64°   Ceiling: Unl
Heat Index: 64°   Visibility: 10mi
Dew Point: 48°   Wind: 14mph
Humidity: 56%   Direction: 160°SSE
Pressure: 30.04"   Gusts: 18mph
Location:  32.73°N, 96.62°W
Report Text: KHQZ 282347Z 16012G16KT 10SM CLR 18/09 A3004
Loading
Personal Weather Stations






























Interactive Weather Map New forecast layout! Learn more

10-Day Weather Forecast

Advertisements
Track Severe Weather on mobile